X

Important NEWS



New Hub Active

Miami is our new hub! Old members can request transfer via hr@dlxairways.net

Thank you very much and have nice flight.


Deluxe Airways.

X

Tours



Hello again, we created one nice test tour for all pilots to attend. also this is ment to be testing of our tour system

Available Tours

If you find some issues please inform us.

Thank you very much and have nice flight.


Deluxe Airways.

 METAR AND TAF INFORMATION
ArrayMETAR FOR LEMD
105763490 7 LEMD 121830Z 23012KT 9999 SCT057 SCT076 12/05 Q1012 NOSIG LEMD 2019-11-12T18:30:00Z 40.48 -3.57 12.0 5.0 230 12 6.21 29.88189 TRUE VFR METAR 582.0 LEMD 121800Z 24009KT 9999 FEW060 BKN077 12/04 Q1012 NOSIG LEMD 2019-11-12T18:00:00Z 40.48 -3.57 12.0 4.0 240 9 6.21 29.88189 TRUE VFR METAR 582.0 LEMD 121730Z 26008KT 9999 BKN060 13/01 Q1012 NOSIG LEMD 2019-11-12T17:30:00Z 40.48 -3.57 13.0 1.0 260 8 6.21 29.88189 TRUE VFR METAR 582.0

 AIRPORT MAP

 RUNWAY INFORMATION
Runway 14L Runway length 11483 ft Runway width 197 ft
Runway elevation 1942 ft Runway displaced threshold 0 ft Runway heading 144
Runway 32R Runway length 11483 ft Runway width 197 ft
Runway elevation 1876 ft Runway displaced threshold 1640 ft Runway heading 324
Runway 14R Runway length 13084 ft Runway width 197 ft
Runway elevation 1995 ft Runway displaced threshold 0 ft Runway heading 144
Runway 32L Runway length 13084 ft Runway width 197 ft
Runway elevation 1909 ft Runway displaced threshold 3445 ft Runway heading 324
Runway 18L Runway length 11483 ft Runway width 197 ft
Runway elevation 1919 ft Runway displaced threshold 1640 ft Runway heading 181
Runway 36R Runway length 11483 ft Runway width 197 ft
Runway elevation 1942 ft Runway displaced threshold 0 ft Runway heading 1
Runway 18R Runway length 13711 ft Runway width 197 ft
Runway elevation 1998 ft Runway displaced threshold 3232 ft Runway heading 181
Runway 36L Runway length 13711 ft Runway width 197 ft
Runway elevation 1985 ft Runway displaced threshold 0 ft Runway heading 2

 AIRPORT FREQUENCIES
Type APP Name MADRID APP Frequency 127.5 MHZ
Type ATIS Name ATIS Frequency 118.25 MHZ
Type ATIS DEP Name ATIS Depar Frequency 130.85 MHZ
Type CLD Name Delivery E Frequency 130.075 MHZ
Type CLD Name Delivery W Frequency 130.35 MHZ
Type EMR Name FIRE Frequency 122.975 MHZ
Type GND Name GND Frequency 121.85 MHZ
Type TWR Name TWR 36L Frequency 118.07 MHZ
Type TWR Name TWR 14R Frequency 118.15 MHZ
Type TWR Name TWR 36R Frequency 118.67 MHZ
Type TWR Name TWR 14L Frequency 118.975 MHZ

 AIRPORT NEAR NAVIGATION AIDS
Type NDB Name Alcobendas Frequency 417 KHZ
Type VOR-DME Name Barajas Frequency 116450 KHZ
Type VOR-DME Name Perales Frequency 116950 KHZ
Type VOR-DME Name S.S.rRyes Frequency 117850 KHZ



Powered by Virtual Airlines Manager [v2.6.2]

Template code change by DeluxeAir